createdAt,value
2019-02-11T00:02:34.358Z,4.00
2019-02-11T00:07:26.713Z,3.33
2019-02-11T00:12:19.449Z,2.70
2019-02-11T00:17:12.024Z,4.50
2019-02-11T00:22:04.468Z,3.87
2019-02-11T00:26:57.109Z,3.00
2019-02-11T00:31:49.484Z,3.10
2019-02-11T00:36:41.773Z,3.23
2019-02-11T00:41:34.139Z,3.00
2019-02-11T00:46:26.521Z,3.00
2019-02-11T00:51:19.025Z,2.90
2019-02-11T00:56:11.437Z,3.00
2019-02-11T01:01:04.033Z,2.90
2019-02-11T01:05:56.532Z,2.73
2019-02-11T01:10:48.957Z,2.67
2019-02-11T01:15:41.728Z,3.10
2019-02-11T01:20:34.217Z,3.10
2019-02-11T01:25:26.707Z,2.63
2019-02-11T01:30:19.199Z,2.63
2019-02-11T01:35:11.587Z,3.30
2019-02-11T01:40:06.813Z,4.07
2019-02-11T01:44:59.042Z,4.00
2019-02-11T01:49:51.646Z,3.70
2019-02-11T01:54:43.952Z,3.03
2019-02-11T01:59:36.612Z,2.80
2019-02-11T02:04:29.318Z,3.57
2019-02-11T02:09:21.609Z,3.00
2019-02-11T02:14:14.259Z,3.10
2019-02-11T02:19:06.756Z,3.97
2019-02-11T02:23:59.174Z,5.40
2019-02-11T02:28:51.801Z,3.13
2019-02-11T02:33:44.242Z,2.60
2019-02-11T02:38:36.994Z,2.57
2019-02-11T02:43:29.556Z,2.67
2019-02-11T02:48:21.856Z,2.90
2019-02-11T02:53:13.998Z,2.70
2019-02-11T02:58:06.348Z,2.67
2019-02-11T03:02:58.961Z,2.60
2019-02-11T03:07:51.365Z,2.73
2019-02-11T03:12:43.903Z,2.87
2019-02-11T03:17:36.628Z,2.53
2019-02-11T03:22:29.188Z,2.43
2019-02-11T03:27:21.772Z,2.60
2019-02-11T03:32:14.234Z,2.87
2019-02-11T03:37:06.598Z,2.90
2019-02-11T03:41:59.094Z,2.90
2019-02-11T03:46:51.616Z,2.90
2019-02-11T03:51:44.166Z,3.43
2019-02-11T03:56:36.960Z,3.20
2019-02-11T04:01:29.301Z,2.37
2019-02-11T04:06:22.020Z,2.83
2019-02-11T04:11:14.525Z,2.90
2019-02-11T04:16:06.804Z,2.90
2019-02-11T04:20:59.145Z,3.70
2019-02-11T04:25:51.443Z,3.73
2019-02-11T04:30:43.974Z,3.33
2019-02-11T04:35:36.057Z,3.47
2019-02-11T04:40:28.609Z,3.00
2019-02-11T04:45:21.021Z,3.40
2019-02-11T04:50:13.673Z,3.67
2019-02-11T04:55:08.722Z,10.03
2019-02-11T05:00:01.446Z,4.20
2019-02-11T05:04:53.775Z,3.00
2019-02-11T05:09:46.557Z,3.40
2019-02-11T05:14:43.790Z,3.60
2019-02-11T05:19:33.311Z,3.43
2019-02-11T05:24:25.891Z,3.37
2019-02-11T05:29:18.464Z,3.53
2019-02-11T05:34:10.773Z,3.63
2019-02-11T05:39:04.594Z,3.67
2019-02-11T05:43:56.934Z,3.50
2019-02-11T05:48:49.258Z,3.20
2019-02-11T05:53:41.736Z,3.63
2019-02-11T05:58:34.264Z,3.53
2019-02-11T06:03:26.839Z,3.63
2019-02-11T06:08:19.350Z,4.20
2019-02-11T06:13:12.121Z,3.70
2019-02-11T06:18:23.924Z,4.00
2019-02-11T06:23:16.478Z,3.20
2019-02-11T06:28:08.520Z,4.07
2019-02-11T06:33:00.951Z,3.70
2019-02-11T06:37:53.574Z,3.57
2019-02-11T06:42:46.307Z,3.90
2019-02-11T06:47:38.945Z,3.83
2019-02-11T06:52:31.819Z,4.40
2019-02-11T06:57:24.496Z,4.23
2019-02-11T07:02:16.873Z,4.40
2019-02-11T07:07:09.571Z,5.20
2019-02-11T07:12:02.164Z,5.20
2019-02-11T07:16:54.457Z,5.67
2019-02-11T07:21:46.765Z,5.00
2019-02-11T07:26:39.198Z,6.30
2019-02-11T07:31:31.581Z,6.00
2019-02-11T07:36:23.942Z,19.43
2019-02-11T07:41:16.994Z,8.47
2019-02-11T07:46:11.552Z,6.35
2019-02-11T07:51:04.188Z,9.83
2019-02-11T07:55:56.640Z,8.45
2019-02-11T08:00:49.348Z,9.45
2019-02-11T08:05:41.875Z,3.85
2019-02-11T08:10:34.223Z,3.35
2019-02-11T08:15:26.444Z,3.12
2019-02-11T08:20:19.065Z,3.52
2019-02-11T08:25:11.934Z,3.47
2019-02-11T08:30:07.764Z,3.33
2019-02-11T08:35:00.383Z,3.17
2019-02-11T08:39:53.005Z,3.45
2019-02-11T08:44:45.760Z,3.33
2019-02-11T08:49:38.119Z,3.97
2019-02-11T08:54:30.723Z,4.23
2019-02-11T08:59:23.205Z,5.93
2019-02-11T09:04:18.985Z,4.57
2019-02-11T09:09:09.894Z,3.80
2019-02-11T09:14:02.158Z,3.50
2019-02-11T09:18:54.982Z,3.40
2019-02-11T09:23:47.518Z,3.35
2019-02-11T09:28:39.871Z,2.75
2019-02-11T09:33:32.429Z,9.58
2019-02-11T09:38:25.054Z,3.40
2019-02-11T09:43:17.396Z,3.07
2019-02-11T09:48:10.150Z,4.60
2019-02-11T09:53:03.666Z,4.07
2019-02-11T09:57:56.435Z,3.60
2019-02-11T10:02:48.975Z,4.25
2019-02-11T10:07:41.735Z,3.60
2019-02-11T10:12:34.537Z,3.47
2019-02-11T10:17:29.859Z,3.72
2019-02-11T10:22:22.042Z,6.42
2019-02-11T10:27:26.524Z,4.12
2019-02-11T10:32:19.401Z,3.07
2019-02-11T10:37:11.973Z,3.05
2019-02-11T10:42:04.524Z,2.72
2019-02-11T10:46:57.353Z,3.10
2019-02-11T10:51:49.757Z,3.90
2019-02-11T10:56:42.477Z,3.10
2019-02-11T11:01:35.128Z,3.35
2019-02-11T11:06:27.520Z,3.00
2019-02-11T11:11:20.313Z,3.60
2019-02-11T11:16:13.101Z,3.60
2019-02-11T11:21:06.652Z,5.72
2019-02-11T11:25:59.003Z,4.60
2019-02-11T11:30:51.435Z,3.30
2019-02-11T11:35:43.948Z,4.37
2019-02-11T11:40:36.384Z,3.35
2019-02-11T11:45:29.054Z,3.75
2019-02-11T11:50:22.016Z,3.47
2019-02-11T11:55:17.307Z,3.95
2019-02-11T12:00:21.637Z,3.20
2019-02-11T12:05:15.601Z,2.80
2019-02-11T12:10:09.381Z,2.85
2019-02-11T12:15:01.934Z,2.87
2019-02-11T12:19:54.812Z,2.75
2019-02-11T12:24:47.500Z,2.87
2019-02-11T12:29:40.002Z,3.17
2019-02-11T12:34:32.357Z,4.53
2019-02-11T12:39:25.401Z,4.47
2019-02-11T12:44:18.088Z,3.98
2019-02-11T12:49:10.737Z,4.40
2019-02-11T12:54:03.018Z,3.83
2019-02-11T12:58:55.408Z,3.70
2019-02-11T13:03:47.866Z,4.10
2019-02-11T13:08:40.212Z,3.52
2019-02-11T13:13:32.728Z,3.92
2019-02-11T13:18:25.589Z,3.90
2019-02-11T13:23:18.525Z,3.40
2019-02-11T13:28:11.188Z,4.17
2019-02-11T13:33:03.921Z,3.37
2019-02-11T13:37:56.648Z,3.67
2019-02-11T13:42:48.658Z,3.95
2019-02-11T13:47:53.821Z,3.00
2019-02-11T13:52:35.450Z,3.75
2019-02-11T13:57:28.309Z,2.70
2019-02-11T14:02:20.528Z,2.50
2019-02-11T14:07:13.049Z,2.50
2019-02-11T14:12:05.893Z,2.40
2019-02-11T14:16:58.774Z,3.22
2019-02-11T14:21:50.992Z,3.10
2019-02-11T14:26:43.618Z,2.60
2019-02-11T14:31:36.401Z,3.40
2019-02-11T14:36:29.208Z,2.60
2019-02-11T14:41:21.690Z,3.17
2019-02-11T14:46:14.174Z,3.00
2019-02-11T14:51:06.785Z,2.95
2019-02-11T14:55:59.285Z,3.20
2019-02-11T15:00:51.952Z,3.50
2019-02-11T15:05:44.801Z,2.40
2019-02-11T15:10:37.481Z,2.47
2019-02-11T15:15:30.185Z,3.20
2019-02-11T15:20:22.829Z,8.38
2019-02-11T15:25:19.288Z,6.15
2019-02-11T15:30:14.782Z,5.50
2019-02-11T15:35:08.737Z,19.73
2019-02-11T15:40:01.055Z,12.93
2019-02-11T15:44:53.757Z,32.20
2019-02-11T15:49:46.365Z,5.87
2019-02-11T15:54:39.152Z,3.97
2019-02-11T15:59:31.505Z,3.90
2019-02-11T16:04:23.825Z,4.53
2019-02-11T16:09:16.357Z,3.53
2019-02-11T16:14:08.862Z,3.43
2019-02-11T16:19:01.417Z,6.53
2019-02-11T16:23:53.919Z,5.30
2019-02-11T16:28:46.636Z,5.43
2019-02-11T16:33:38.867Z,4.43
2019-02-11T16:38:31.364Z,4.23
2019-02-11T16:43:24.084Z,4.83
2019-02-11T16:48:16.632Z,4.33
2019-02-11T16:53:09.274Z,4.70
2019-02-11T16:58:01.733Z,4.77
2019-02-11T17:02:54.487Z,4.87
2019-02-11T17:07:47.336Z,7.30
2019-02-11T17:12:40.059Z,6.20
2019-02-11T17:17:32.562Z,6.93
2019-02-11T17:22:24.985Z,5.40
2019-02-11T17:27:17.494Z,5.33
2019-02-11T17:32:09.929Z,5.17
2019-02-11T17:37:02.240Z,4.70
2019-02-11T17:41:55.233Z,6.77
2019-02-11T17:46:47.752Z,32.00
2019-02-11T17:51:40.389Z,32.13
2019-02-11T17:56:32.884Z,19.93
2019-02-11T18:01:25.717Z,20.03
2019-02-11T18:06:18.283Z,29.63
2019-02-11T18:11:10.580Z,25.63
2019-02-11T18:16:03.015Z,19.40
2019-02-11T18:20:55.466Z,13.03
2019-02-11T18:25:47.599Z,10.57
2019-02-11T18:30:40.523Z,10.97
2019-02-11T18:35:33.158Z,8.87
2019-02-11T18:40:25.638Z,7.20
2019-02-11T18:45:19.116Z,6.67
2019-02-11T18:50:15.693Z,6.60
2019-02-11T18:55:10.821Z,6.70
2019-02-11T19:00:05.061Z,5.73
2019-02-11T19:04:57.849Z,6.03
2019-02-11T19:09:50.164Z,10.83
2019-02-11T19:14:42.520Z,7.33
2019-02-11T19:19:42.807Z,8.83
2019-02-11T19:24:28.826Z,11.87
2019-02-11T19:29:21.217Z,10.03
2019-02-11T19:34:13.592Z,15.23
2019-02-11T19:39:06.517Z,15.67
2019-02-11T19:43:58.972Z,18.73
2019-02-11T19:48:51.289Z,22.20
2019-02-11T19:53:43.942Z,15.40
2019-02-11T19:58:36.641Z,22.57
2019-02-11T20:03:29.276Z,32.50
2019-02-11T20:08:21.937Z,17.13
2019-02-11T20:13:14.454Z,22.30
2019-02-11T20:18:07.081Z,20.23
2019-02-11T20:22:59.528Z,18.57
2019-02-11T20:27:52.311Z,14.60
2019-02-11T20:32:44.866Z,14.73
2019-02-11T20:37:37.441Z,12.50
2019-02-11T20:42:30.005Z,11.70
2019-02-11T20:47:22.545Z,11.77
2019-02-11T20:52:15.013Z,13.67
2019-02-11T20:57:07.700Z,37.33
2019-02-11T21:02:00.409Z,24.53
2019-02-11T21:06:53.137Z,19.10
2019-02-11T21:11:46.251Z,24.53
2019-02-11T21:16:38.620Z,25.50
2019-02-11T21:21:32.183Z,17.23
2019-02-11T21:26:24.434Z,16.57
2019-02-11T21:31:16.901Z,13.50
2019-02-11T21:36:09.346Z,13.00
2019-02-11T21:41:01.819Z,16.40
2019-02-11T21:45:54.329Z,15.47
2019-02-11T21:50:46.557Z,18.97
2019-02-11T21:55:39.131Z,17.87
2019-02-11T22:00:32.401Z,16.27
2019-02-11T22:05:24.896Z,16.13
2019-02-11T22:10:19.666Z,16.50
2019-02-11T22:15:13.772Z,16.53
2019-02-11T22:20:09.358Z,13.97
2019-02-11T22:25:01.794Z,11.80
2019-02-11T22:29:54.550Z,9.47
2019-02-11T22:34:47.073Z,11.13
2019-02-11T22:39:39.674Z,11.90
2019-02-11T22:44:32.370Z,13.20
2019-02-11T22:49:25.390Z,11.53
2019-02-11T22:54:17.814Z,11.90
2019-02-11T22:59:10.409Z,11.83
2019-02-11T23:04:03.121Z,14.63
2019-02-11T23:08:55.649Z,11.37
2019-02-11T23:13:48.202Z,11.53
2019-02-11T23:18:40.945Z,10.93
2019-02-11T23:23:33.589Z,11.43
2019-02-11T23:28:26.300Z,10.67
2019-02-11T23:33:18.758Z,14.97
2019-02-11T23:38:11.065Z,13.83
2019-02-11T23:43:03.183Z,10.37
2019-02-11T23:47:55.910Z,15.50
2019-02-11T23:52:48.473Z,23.10
2019-02-11T23:57:41.234Z,18.07
